Andrew Palmer

Chefscout - Sheffield United
25 Nov 2027
Donnerstag
Verarbeitung

Persönlichkeit

Anpassungsfähigkeit (19) Ehrgeiz (12) Kontroverse (15) Loyalität (11) Druck (1) Professionalität (11) Fairness (19) Temperament (4)

Profil

Trainerstil Demokratisch
Lizenz Kontinentale B
Entschlossenheit 7
Menschenführung 11
Motivation 13
Disziplin 12
Arbeitszufriedenheit
100%
Ermüdung
0%
Rolle Chefscout
Gehalt 97.1K p/W
Vertrag 14.03.2028

Leistung

Verhalten Gut
Trainingseffektivität
40%
Spielerentwicklung
20%
Verletzungsprävention
45%
Taktische Umsetzung
50%

Letzte Ereignisse

Spieler begutachtet jetzt
Nahm an einer Scouting-Besprechung teil jetzt
Nahm an einer Scouting-Besprechung teil jetzt
Spieler begutachtet 7T her
Spieler begutachtet 7T her
Spieler begutachtet 7T her
Spieler begutachtet 7T her
Spieler begutachtet 7T her

Aktuell beobachtet

223
Spieler Verein Status Fähigkeit Vertrauen Beobachtet Zuletzt beobachtet Letzte Stimme
Rivaldo Grobler Free State Stars Aktiv 100 / 102 40% 2 24.11.2027 -
Esquerdinha Shrewsbury Town Aktiv 120 / 126 40% 3 24.11.2027 -
Aiden Hezarkhani Real Salt Lake Aktiv 89 / 102 40% 3 23.11.2027 -
Tyler Hall Inter Miami CF Aktiv 107 / 105 40% 1 23.11.2027 -
Honest Ahanor Atalanta Aktiv 123 / 149 40% 3 22.11.2027 -
Joel Ezra Enyimba Aktiv 78 / 114 40% 2 22.11.2027 -
Frankie Westfield Philadelphia Union Aktiv 119 / 112 40% 5 21.11.2027 -
Bahia Criciuma Aktiv 112 / 118 40% 3 19.11.2027 -
Hervin Goyes Deportivo Pasto Aktiv 101 / 110 40% 2 19.11.2027 -
Christos Mouzakitis Hull City Aktiv 137 / 146 40% 4 18.11.2027 -
Lucas Bergvall Tottenham Aktiv 163 / 153 40% 5 18.11.2027 -
Caleb Yirenkyi Coventry City Aktiv 146 / 148 40% 7 17.11.2027 -
Chris Rigg Sunderland Aktiv 141 / 139 40% 4 17.11.2027 -
Drew Baiera New York City Aktiv 94 / 107 40% 1 16.11.2027 -
Tyson Pearce St. Louis CITY SC Aktiv 100 / 92 40% 1 16.11.2027 -
Trey Nyoni Rotherham United Aktiv 133 / 139 40% 4 14.11.2027 -
Dayann Methalie Aston Villa Aktiv 136 / 136 40% 1 14.11.2027 -
Jofre Torrents Ajax Aktiv 121 / 139 40% 4 13.11.2027 -
Sam Curtis Cambridge United Aktiv 111 / 111 40% 1 13.11.2027 -
Daniel Banjaqui Benfica Aktiv 117 / 138 40% 1 12.11.2027 -
Julián Bazán Philadelphia Union Aktiv 111 / 111 40% 3 11.11.2027 -
Nicolas Sport Recife Aktiv 115 / 112 40% 2 11.11.2027 -
Camilo Rey Domenech Boca Juniors Aktiv 114 / 122 40% 2 08.11.2027 -
Malick Yalcouyé Brighton Aktiv 129 / 133 40% 3 06.11.2027 -
Ronan Kpakio Cardiff City Aktiv 117 / 118 40% 3 06.11.2027 -
Axel Tape Bayer Leverkusen Aktiv 137 / 128 40% 2 04.11.2027 -
Leny Yoro Manchester United Aktiv 163 / 146 40% 3 03.11.2027 -
Alejandro Almaraz Nueva Chicago Aktiv 105 / 123 40% 2 03.11.2027 -
Tobias Moi Bodo/Glimt Aktiv 119 / 107 40% 2 02.11.2027 -
Celías Ingenthron Vélez Aktiv 104 / 130 40% 2 01.11.2027 -
Josh Nichols Tranmere Rovers Aktiv 114 / 123 40% 3 30.10.2027 -
Ayden Heaven Luton Town Aktiv 159 / 141 40% 6 29.10.2027 -
Dmitry Pestryakov Dinamo Moscow Aktiv 124 / 114 40% 2 26.10.2027 -
Matthew Litherland Rotherham United Aktiv 124 / 113 40% 2 24.10.2027 -
Nazareno Roselli Defensa y Justicia Aktiv 116 / 120 40% 3 23.10.2027 -
Josh King Chelsea Aktiv 135 / 160 40% 1 22.10.2027 -
Agustín Obregón River Plate Aktiv 109 / 125 40% 2 20.10.2027 -
Jens Hjertø-Dahl Hull City Aktiv 123 / 129 40% 1 19.10.2027 -
Jovan Milosavljević Kalmar FF Aktiv 103 / 111 40% 3 18.10.2027 -
Felipe Obradovich Ferro Carril Oeste Aktiv 96 / 119 40% 1 17.10.2027 -
Tiago Parente Benfica Aktiv 117 / 108 40% 3 09.10.2027 -
Olaniyi Saheed Kwara United Aktiv 76 / 99 40% 5 08.10.2027 -
Juma Bah Manchester City Aktiv 130 / 124 40% 2 16.09.2027 -
Alexis Fretes Libertad Aktiv 103 / 106 40% 1 12.09.2027 -
Eliás Montiel Werder Bremen Aktiv 130 / 140 40% 2 10.09.2027 -
Martín Jiménez Audax Italiano Aktiv 93 / 111 40% 1 08.09.2027 -
Mauro Carrizo Atlético Tucumán Aktiv 101 / 102 40% 1 06.09.2027 -
Kaick Minnesota United FC Aktiv 95 / 112 40% 1 05.09.2027 -
Emiliano Bértoli Patronato Aktiv 93 / 106 40% 1 03.09.2027 -
Harry Mills Maritimo Aktiv 93 / 98 40% 1 02.09.2027 -
Mikkel Hope Haugesund Aktiv 79 / 89 40% 1 29.08.2027 -
Hugo Rojas Instituto Aktiv 102 / 103 40% 1 29.08.2027 -
Keimer Sandoval Deportivo Cali Aktiv 95 / 112 40% 2 27.08.2027 -
Veljko Milosavljević Aston Villa Aktiv 130 / 135 40% 1 27.08.2027 -
Baye Coulibaly Charlotte Football Club Aktiv 100 / 105 40% 2 25.08.2027 -
Ishé Samuels-Smith Chelsea Aktiv 107 / 127 40% 1 23.08.2027 -
Juan Morán Godoy Cruz Aktiv 96 / 106 40% 1 22.08.2027 -
Lucas Barrientos Los Andes Aktiv 100 / 98 40% 1 22.08.2027 -
Adam Bakoune Ospitaletto Aktiv 105 / 101 40% 3 19.08.2027 -
Edoardo Tartaglia Renate Aktiv 110 / 117 40% 2 19.08.2027 -
Andrea Bertoncini Carpi Aktiv 87 / 101 40% 2 10.08.2027 -
Matías Gómez Granada Aktiv 104 / 125 40% 1 10.08.2027 -
Eddy Kouadio Crotone Aktiv 115 / 120 40% 3 07.08.2027 -
Ricky Atletico Venezuela Aktiv 88 / 101 40% 2 05.08.2027 -
Kazunari Kita Real Sociedad Aktiv 103 / 105 40% 2 04.08.2027 -
Daniel Costa Sporting CP Aktiv 95 / 109 40% 1 04.08.2027 -
Keagan Phiri Platinum Stars Aktiv 85 / 102 40% 2 03.08.2027 -
Lewis Miley Chelsea Aktiv 153 / 146 40% 3 02.08.2027 -
Simone Kosijer Triestina Aktiv 99 / 108 40% 1 02.08.2027 -
Jan Bürger Gillingham Aktiv 124 / 120 40% 3 29.07.2027 -
Tiago Freitas Benfica Aktiv 121 / 130 40% 1 29.07.2027 -
Daniel Kelly Oxford United Aktiv 101 / 118 40% 3 28.07.2027 -
Bernardo Lima Porto Aktiv 112 / 107 40% 1 28.07.2027 -
Finley McAllister Grimsby Town Aktiv 80 / 92 40% 1 27.07.2027 -
Matvey Kislyak CSKA Moscow Aktiv 122 / 157 40% 1 12.07.2027 -
Riley Owen Trento Aktiv 96 / 116 40% 1 10.07.2027 -
Juan Giménez Celta Aktiv 109 / 128 40% 1 07.07.2027 -
Keagan Tau Ajax Cape Town Aktiv 75 / 106 40% 1 19.06.2027 -
Gonçalo Oliveira Benfica Aktiv 102 / 116 40% 2 17.06.2027 -
Davide Bartesaghi AC Milan Aktiv 134 / 132 40% 2 14.06.2027 -
Joel McGregor Swindon Town Aktiv 87 / 102 40% 1 13.06.2027 -
Vasco Santos Oliveirense Aktiv 88 / 95 40% 1 11.06.2027 -
Zane Albarus Cambridge United Aktiv 89 / 109 40% 1 09.06.2027 -
Bitello SC Freiburg Verhandlung 135 / 135 68% 1 01.06.2027 -
Luiz Henrique West Ham United Verhandlung 142 / 143 68% 1 01.06.2027 -
Franculino Crystal Palace Verhandlung 136 / 140 67% 1 01.06.2027 -
Leandro Martins Benfica Aktiv 95 / 89 40% 1 01.06.2027 -
Reuben Reid Barnsley Aktiv 90 / 94 40% 2 30.05.2027 -
Ernie Weaver AFC Wimbledon Aktiv 110 / 108 40% 1 30.05.2027 -
Ibrahim Maza Bayer Leverkusen Aktiv 137 / 160 40% 1 30.05.2027 -
Chineme Chinonso Ikorodu City Aktiv 85 / 87 40% 6 29.05.2027 -
Iwan Morgan Grimsby Town Aktiv 115 / 116 40% 4 29.05.2027 -
Guille Rosas Gijón Aktiv 141 / 140 40% 1 29.05.2027 -
Adam Wharton Crystal Palace Aktiv 157 / 153 40% 4 28.05.2027 -
Tariq Lamptey Queens Park Rangers Aktiv 134 / 142 40% 1 28.05.2027 -
Ruben Ramos LA Galaxy Aktiv 95 / 109 40% 3 27.05.2027 -
Luca Mazzeo Potenza Aktiv 95 / 106 40% 1 27.05.2027 -
Yuval Ranon Vitesse Aktiv 101 / 90 40% 2 25.05.2027 -
Assane Diao Lazio Aktiv 140 / 144 40% 5 22.05.2027 -
Jordan Beyer Burnley Aktiv 150 / 128 40% 2 21.05.2027 -
Leo Castledine Middlesbrough Aktiv 135 / 126 40% 5 21.05.2027 -
Borna Knezović Casarano Aktiv 114 / 112 40% 2 21.05.2027 -
Toby Collyer West Bromwich Albion Aktiv 121 / 125 40% 1 21.05.2027 -
Paco Esteban Virtus Entella Aktiv 95 / 99 40% 2 19.05.2027 -
Luke Baartman ES Mostaganem Aktiv 121 / 120 40% 2 17.05.2027 -
Rayan Bournemouth Aktiv 147 / 131 40% 2 16.05.2027 -
Inti López River Plate Aktiv 89 / 105 40% 1 15.05.2027 -
Víctor Guzmán Sporting CP Aktiv 99 / 103 40% 2 14.05.2027 -
Angelos Neofytou Omonoia Aktiv 110 / 92 40% 2 14.05.2027 -
Juanlu Bournemouth Aktiv 143 / 148 40% 4 13.05.2027 -
Nicolás Azambuja Cádiz Aktiv 104 / 128 40% 1 13.05.2027 -
Ryan Sessegnon Fulham Aktiv 132 / 136 40% 7 12.05.2027 -
Ognjen Bondžulić Mladost Lucani Aktiv 104 / 109 40% 4 11.05.2027 -
Callum Doyle Wrexham Aktiv 143 / 130 40% 2 10.05.2027 -
Leif Davis Ipswich Town Aktiv 143 / 140 40% 1 10.05.2027 -
Amaury Morales Pumas UNAM Aktiv 115 / 113 40% 4 06.05.2027 -
Markus Jensen Nacional Aktiv 121 / 122 40% 2 06.05.2027 -
Seymour Reid New York City Aktiv 105 / 105 40% 1 05.05.2027 -
Habib Diarra Sunderland Aktiv 129 / 146 40% 2 04.05.2027 -
Maren Kefas Plateau United Aktiv 72 / 88 40% 3 04.05.2027 -
Oumar Solet Udinese Aktiv 134 / 138 40% 1 04.05.2027 -
Ben Ahmed Kohili Paradou Aktiv 120 / 111 40% 3 02.05.2027 -
Surprise Manthosi Polokwane City Aktiv 72 / 102 40% 1 28.04.2027 -
Sidiki Chérif Coventry City Aktiv 131 / 133 40% 3 26.04.2027 -
Adama Goïta Remo Stars Aktiv 88 / 110 40% 1 22.04.2027 -
Adrien Truffert Bournemouth Aktiv 154 / 141 40% 3 19.04.2027 -
Lewis Ferguson Bologna Aktiv 130 / 133 40% 1 15.04.2027 -
Baylee Dipepa Norwich City Aktiv 116 / 100 40% 2 14.04.2027 -
Edoardo Bove Watford Aktiv 122 / 135 40% 3 12.04.2027 -
Mateus Mané Manchester United Aktiv 128 / 148 40% 2 12.04.2027 -
Thomas Waddingham Portsmouth Aktiv 92 / 105 40% 2 12.04.2027 -
Will Lankshear Middlesbrough Aktiv 124 / 130 40% 5 10.04.2027 -
Nadir Zortea Bologna Aktiv 149 / 129 40% 2 07.04.2027 -
Max Bird Birmingham Aktiv 126 / 141 40% 1 07.04.2027 -
Joseph Arumala Ikorodu City Aktiv 101 / 104 40% 2 05.04.2027 -
Lwanda Mbanjwa Maritzburg United Aktiv 73 / 87 40% 1 02.04.2027 -
Josh Doig Sassuolo Aktiv 125 / 131 40% 1 02.04.2027 -
Anestis Mythou PAOK Aktiv 75 / 117 40% 4 29.03.2027 -
Keane Lewis-Potter Brentford Aktiv 154 / 142 40% 1 28.03.2027 -
David Kalokoh Ajax Aktiv 122 / 129 40% 1 27.03.2027 -
Jacob Greaves Ipswich Town Aktiv 136 / 134 40% 2 24.03.2027 -
Luke McNally Bristol City Aktiv 121 / 124 40% 2 24.03.2027 -
Welington Southampton Aktiv 140 / 132 40% 2 23.03.2027 -
Noah Sadiki Sunderland Aktiv 142 / 149 40% 2 20.03.2027 -
Lorenzo De Leo Renate Aktiv 91 / 109 40% 5 19.03.2027 -
Ethan Galbraith Swansea City Aktiv 128 / 123 40% 1 15.03.2027 -
Aaron Hickey Brentford Aktiv 140 / 138 40% 5 11.03.2027 -
Milan van Ewijk Mansfield Town Aktiv 120 / 129 40% 2 11.03.2027 -
Dom Ballard Leyton Orient Aktiv 133 / 119 40% 2 20.02.2027 -
Rocco Vata Watford Aktiv 117 / 121 40% 1 08.02.2027 -
Shunsuke Saito Westerlo Aktiv 97 / 114 40% 1 05.02.2027 -
Dramane Kamagaté USM Alger Aktiv 108 / 123 40% 1 04.02.2027 -
Leon Grgić Sturm Graz Aktiv 124 / 134 40% 1 02.02.2027 -
Facundo Torres LOSC Lille Verhandlung 134 / 134 67% 1 18.01.2027 -
Amar Memić Casa Pia Verhandlung 127 / 128 62% 1 01.01.2027 -
Raúl Rangel Sporting CP Verhandlung 132 / 132 66% 1 01.01.2027 -
Derensili Sanches Fernandes Huddersfield Town Aktiv 112 / 134 40% 2 31.12.2026 -
Kevin Fulham Aktiv 157 / 161 40% 2 29.12.2026 -
Jack McGlynn Stoke City Aktiv 117 / 125 40% 1 29.12.2026 -
Finn Azaz Southampton Aktiv 131 / 117 40% 1 27.12.2026 -
Georginio Rutter Brighton Aktiv 154 / 136 40% 3 26.12.2026 -
Matt O'Riley Brighton Aktiv 142 / 151 40% 4 26.12.2026 -
Nicolás Fernández Mercau Shakhtar Aktiv 130 / 152 40% 2 25.12.2026 -
Mikkel Damsgaard Brentford Aktiv 137 / 153 40% 1 25.12.2026 -
Tom Fellows Southampton Aktiv 144 / 127 40% 4 24.12.2026 -
Callum Hudson-Odoi Nottingham Forest Aktiv 160 / 155 40% 2 24.12.2026 -
Othmane Maamma Watford Aktiv 132 / 130 40% 1 23.12.2026 -
Giacomo Raspadori Atalanta Aktiv 148 / 148 40% 1 22.12.2026 -
Petar Stanić Ludogorets Aktiv 141 / 139 40% 1 22.12.2026 -
Reda Khadra Qarabag Aktiv 138 / 123 40% 2 19.12.2026 -
Amine Adli Bournemouth Aktiv 153 / 154 40% 1 19.12.2026 -
Jack Rudoni Coventry City Aktiv 133 / 131 40% 1 17.12.2026 -
Ousmane Diomande Nottingham Forest Aktiv 159 / 162 40% 1 17.12.2026 -
Rodrigo Gomes Wolverhampton Aktiv 152 / 144 40% 1 13.12.2026 -
Wilson Isidor Sunderland Aktiv 147 / 143 40% 1 13.12.2026 -
Jadon Sancho Manchester United Aktiv 152 / 145 40% 2 11.12.2026 -
Bryan Ramírez FC Cincinnati Aktiv 133 / 128 40% 4 07.12.2026 -
Florentino Luís Ipswich Town Aktiv 126 / 146 40% 2 04.12.2026 -
Santiago Rodríguez Columbus Crew Aktiv 137 / 130 40% 2 01.12.2026 -
Tyler Adams Bournemouth Aktiv 139 / 164 40% 2 26.11.2026 -
Yan Diomandé Real Madrid Aktiv 143 / 144 40% 1 25.11.2026 -
Óscar Mingueza Crystal Palace Aktiv 164 / 161 40% 3 24.11.2026 -
Yehor Yarmoliuk Brentford Aktiv 141 / 160 40% 1 23.11.2026 -
Quinten Timber Crystal Palace Aktiv 137 / 162 40% 2 20.11.2026 -
Yeremy Pino Crystal Palace Aktiv 134 / 156 40% 1 20.11.2026 -
Iván Angulo Orlando City Aktiv 130 / 125 40% 1 17.11.2026 -
Oliver Skipp Leicester City Aktiv 120 / 122 40% 1 12.11.2026 -
Elias Achouri San Diego Football Club Aktiv 127 / 141 40% 3 10.11.2026 -
Amin Boudri Los Angeles Football Club Aktiv 122 / 135 40% 2 09.11.2026 -
Tomás Chancalay Minnesota United FC Aktiv 116 / 135 40% 2 09.11.2026 -
Joaquín Pereyra Minnesota United FC Aktiv 131 / 123 40% 4 08.11.2026 -
Kelvin Yeboah Minnesota United FC Aktiv 119 / 122 40% 2 07.11.2026 -
Gabriel Pirani San Diego Football Club Aktiv 137 / 120 40% 1 31.10.2026 -
Marco Pašalić Orlando City Aktiv 129 / 135 40% 1 31.10.2026 -
Riqui Puig LA Galaxy Aktiv 120 / 138 40% 2 30.10.2026 -
Diego Luna Real Salt Lake Aktiv 139 / 134 40% 1 28.10.2026 -
Bénie Traoré New York City Aktiv 111 / 114 40% 4 19.10.2026 -
Marcelo Allende Mamelodi Sundowns Aktiv 113 / 126 40% 1 18.10.2026 -
Juan Manuel Sanabria Real Salt Lake Aktiv 116 / 133 40% 1 15.10.2026 -
Shea Charles Southampton Aktiv 122 / 132 40% 1 14.10.2026 -
Telasco Segovia Inter Miami CF Aktiv 128 / 131 40% 1 11.10.2026 -
Martín Ojeda Orlando City Aktiv 137 / 122 40% 1 10.10.2026 -
Andrés Herrera Columbus Crew Aktiv 133 / 129 40% 1 08.10.2026 -
Kimito Nono Sanfrecce Hiroshima Aktiv 122 / 129 40% 1 07.10.2026 -
Michael Kayode Brentford Aktiv 131 / 148 40% 1 07.10.2026 -
Diego Lainez Tigres Aktiv 135 / 119 40% 2 30.09.2026 -
Antony Portland Timbers Aktiv 141 / 140 40% 2 26.09.2026 -
Rui Modesto Vancouver Whitecaps Aktiv 111 / 128 40% 2 22.09.2026 -
Griffin Yow New England Revolution Aktiv 115 / 121 40% 1 22.09.2026 -
Dara O'Shea Ipswich Town Aktiv 138 / 131 40% 1 19.09.2026 -
Alan Lescano Argentinos Juniors Aktiv 129 / 138 40% 1 19.09.2026 -
Theo Corbeanu Toronto FC Aktiv 114 / 128 40% 1 16.09.2026 -
Nathan Collins Brentford Aktiv 154 / 136 40% 1 16.09.2026 -
Víctor Guzmán Monterrey Aktiv 122 / 129 40% 1 16.09.2026 -
Elliot Anderson Manchester City Aktiv 152 / 159 40% 1 14.09.2026 -
David Schnegg Charlotte Football Club Aktiv 116 / 123 40% 1 12.09.2026 -
Djordje Mihailović Toronto FC Aktiv 132 / 133 40% 1 12.09.2026 -
James Garner Everton Aktiv 149 / 147 40% 1 09.09.2026 -
Paxten Aaronson Colorado Rapids Aktiv 126 / 134 40% 1 08.09.2026 -
Anton Stach Leeds United Aktiv 162 / 141 40% 1 08.09.2026 -
Facundo Mura Inter Miami CF Aktiv 114 / 119 40% 1 07.09.2026 -
Darren Yapi Colorado Rapids Aktiv 100 / 108 40% 1 03.08.2026 -
Matías Fernández-Pardo Newcastle United Aktiv 122 / 150 40% 1 01.08.2026 Mehr Infos nötig